Time;durP1;ratioP1;P1;durP2;ratioP2;P2;SDS_P1;SDS_P2;PMS_P1;PMS_P2;Temp;Humidity;BMP_temperature;BMP_pressure;BME280_temperature;BME280_humidity;BME280_pressure;Samples;Min_cycle;Max_cycle;Signal;HPM_P1;HPM_P2
2022/03/18 00:01:14;;;;;;;7.77;5.00;;;;;;;1.13;nan;103848.88;5050050;28;20075;-65
2022/03/18 00:03:39;;;;;;;9.63;5.53;;;;;;;1.16;nan;103846.69;5050035;28;20033;-65
2022/03/18 00:06:05;;;;;;;9.90;5.67;;;;;;;1.13;nan;103846.34;5050077;28;20249;-62
2022/03/18 00:08:30;;;;;;;7.60;4.93;;;;;;;1.11;nan;103847.78;5050031;28;20469;-62
2022/03/18 00:10:55;;;;;;;8.90;5.13;;;;;;;1.06;nan;103844.66;5049525;28;20024;-63
2022/03/18 00:13:21;;;;;;;8.90;5.13;;;;;;;1.01;nan;103852.53;5049681;28;20555;-64
2022/03/18 00:15:46;;;;;;;7.67;4.73;;;;;;;1.00;nan;103863.47;5050090;28;20032;-64
2022/03/18 00:18:11;;;;;;;7.23;5.30;;;;;;;0.99;nan;103864.19;5050158;28;20420;-64
2022/03/18 00:20:37;;;;;;;9.40;4.60;;;;;;;0.97;nan;103868.22;5049643;28;20027;-64
2022/03/18 00:23:02;;;;;;;8.80;5.97;;;;;;;0.87;nan;103867.09;5049755;28;20086;-61
2022/03/18 00:25:27;;;;;;;7.63;4.97;;;;;;;0.85;nan;103871.09;5049469;28;20025;-65
2022/03/18 00:27:52;;;;;;;11.07;5.40;;;;;;;0.82;nan;103871.66;5049653;28;20384;-64
2022/03/18 00:30:18;;;;;;;8.17;4.47;;;;;;;0.83;nan;103870.91;5049823;28;20122;-59
2022/03/18 00:32:45;;;;;;;8.97;5.10;;;;;;;0.73;nan;103864.50;5049219;28;20036;-64
2022/03/18 00:35:10;;;;;;;10.30;4.70;;;;;;;0.65;nan;103859.38;5049739;28;20031;-64
2022/03/18 00:37:37;;;;;;;9.67;4.83;;;;;;;0.57;nan;103863.59;5049415;28;20017;-65
2022/03/18 00:40:05;;;;;;;7.27;4.83;;;;;;;0.54;nan;103860.63;5048825;28;20028;-64
2022/03/18 00:42:33;;;;;;;7.93;4.50;;;;;;;0.54;nan;103862.28;5049396;28;20504;-64
2022/03/18 00:44:59;;;;;;;9.80;4.87;;;;;;;0.53;nan;103863.00;5049805;28;20021;-65
2022/03/18 00:52:53;;;;;;;7.73;4.63;;;;;;;0.43;nan;103871.19;5049728;28;20090;-64
2022/03/18 00:55:18;;;;;;;6.87;4.40;;;;;;;0.38;nan;103880.81;5048825;28;20029;-64
2022/03/18 00:57:43;;;;;;;6.87;4.53;;;;;;;0.35;nan;103883.00;5048904;28;20025;-61
2022/03/18 01:00:09;;;;;;;10.20;4.80;;;;;;;0.30;nan;103887.56;5048542;28;20532;-64
2022/03/18 01:02:34;;;;;;;8.40;4.60;;;;;;;0.29;nan;103884.81;5049339;28;20024;-63
2022/03/18 01:05:00;;;;;;;7.40;4.80;;;;;;;0.32;nan;103881.00;5048893;28;20021;-64
2022/03/18 01:07:25;;;;;;;6.40;4.30;;;;;;;0.34;nan;103893.94;5048466;28;20036;-64
2022/03/18 01:09:50;;;;;;;8.87;4.80;;;;;;;0.30;nan;103897.75;5049001;28;20060;-65
2022/03/18 01:12:16;;;;;;;6.53;4.90;;;;;;;0.25;nan;103909.03;5049010;28;20025;-64
2022/03/18 01:14:42;;;;;;;7.97;4.90;;;;;;;0.17;nan;103905.53;5048825;28;20020;-64
2022/03/18 01:17:07;;;;;;;10.40;4.70;;;;;;;0.18;nan;103909.00;5049120;28;20063;-64
2022/03/18 01:19:32;;;;;;;7.80;4.30;;;;;;;0.19;nan;103905.72;5048507;28;20082;-64
2022/03/18 01:21:58;;;;;;;11.80;5.53;;;;;;;0.16;nan;103901.16;5048728;28;20025;-64
2022/03/18 01:24:23;;;;;;;7.60;4.90;;;;;;;0.17;nan;103894.41;5048983;28;20079;-63
2022/03/18 01:26:48;;;;;;;7.13;4.70;;;;;;;0.11;nan;103904.75;5048274;28;20032;-63
2022/03/18 01:29:13;;;;;;;9.20;4.37;;;;;;;0.03;nan;103900.34;5048825;28;20047;-64
2022/03/18 01:31:39;;;;;;;8.50;4.70;;;;;;;-0.02;nan;103904.88;5048148;28;20031;-64
2022/03/18 01:34:04;;;;;;;5.90;4.43;;;;;;;-0.03;nan;103896.31;5048332;28;20032;-64
2022/03/18 01:36:29;;;;;;;7.50;4.67;;;;;;;-0.06;nan;103900.09;5048172;28;20057;-64
2022/03/18 01:38:55;;;;;;;10.53;5.40;;;;;;;-0.10;nan;103903.91;5048040;28;20469;-65
2022/03/18 01:41:21;;;;;;;6.73;4.53;;;;;;;-0.11;nan;103902.09;5048662;28;20096;-64
2022/03/18 01:43:47;;;;;;;10.03;4.83;;;;;;;-0.13;nan;103908.63;5047965;28;20017;-64
2022/03/18 01:46:14;;;;;;;10.03;5.63;;;;;;;-0.16;nan;103898.94;5048661;28;20056;-64
2022/03/18 01:48:40;;;;;;;11.83;5.67;;;;;;;-0.18;nan;103914.78;5047810;28;20037;-64
2022/03/18 01:51:07;;;;;;;8.87;5.00;;;;;;;-0.26;nan;103912.19;5047254;28;20036;-64
2022/03/18 01:53:34;;;;;;;10.27;5.73;;;;;;;-0.27;nan;103905.25;5047938;28;20032;-62
2022/03/18 01:56:00;;;;;;;10.83;5.27;;;;;;;-0.28;nan;103913.63;5048385;28;20075;-65
2022/03/18 01:58:25;;;;;;;10.77;4.67;;;;;;;-0.28;nan;103908.53;5047165;28;20092;-63
2022/03/18 02:00:51;;;;;;;6.53;4.83;;;;;;;-0.28;nan;103910.16;5048310;28;20020;-64
2022/03/18 02:03:17;;;;;;;7.13;4.67;;;;;;;-0.28;nan;103907.59;5047899;28;20025;-63
2022/03/18 02:05:43;;;;;;;12.20;6.03;;;;;;;-0.32;nan;103900.28;5048162;28;20031;-64
2022/03/18 02:08:09;;;;;;;10.00;5.80;;;;;;;-0.37;nan;103900.66;5048273;28;20025;-62
2022/03/18 02:10:35;;;;;;;8.30;5.33;;;;;;;-0.40;nan;103902.81;5047382;28;20036;-65
2022/03/18 02:13:00;;;;;;;8.67;5.00;;;;;;;-0.37;nan;103907.38;5047224;28;20473;-65
2022/03/18 02:15:26;;;;;;;8.73;4.70;;;;;;;-0.35;nan;103908.47;5047356;28;20036;-65
2022/03/18 02:17:51;;;;;;;9.37;5.30;;;;;;;-0.35;nan;103911.03;5047685;28;20127;-64
2022/03/18 02:20:16;;;;;;;8.80;4.57;;;;;;;-0.35;nan;103910.09;5047740;28;20029;-64
2022/03/18 02:22:42;;;;;;;7.53;5.67;;;;;;;-0.40;nan;103917.19;5047453;28;20383;-65
2022/03/18 02:25:09;;;;;;;8.57;4.97;;;;;;;-0.43;nan;103927.00;5047253;28;20488;-64
2022/03/18 02:27:36;;;;;;;10.90;5.20;;;;;;;-0.43;nan;103929.56;5047635;28;20025;-62
2022/03/18 02:30:02;;;;;;;6.87;4.77;;;;;;;-0.41;nan;103925.53;5047195;28;20025;-64
2022/03/18 02:32:29;;;;;;;8.10;5.40;;;;;;;-0.45;nan;103929.31;5059143;28;20035;-64
2022/03/18 02:34:54;;;;;;;7.07;4.87;;;;;;;-0.47;nan;103935.88;5067413;28;20020;-64
2022/03/18 02:37:19;;;;;;;9.13;5.27;;;;;;;-0.56;nan;103927.06;5067286;28;20070;-65
2022/03/18 02:39:45;;;;;;;9.27;6.03;;;;;;;-0.62;nan;103914.47;5066940;28;20108;-61
2022/03/18 02:42:10;;;;;;;7.97;5.87;;;;;;;-0.65;nan;103919.16;5067431;28;20160;-64
2022/03/18 02:44:35;;;;;;;8.63;5.40;;;;;;;-0.66;nan;103938.63;5067545;28;20027;-64
2022/03/18 02:47:01;;;;;;;11.20;6.57;;;;;;;-0.65;nan;103948.09;5066044;28;20082;-62
2022/03/18 02:49:26;;;;;;;8.67;5.97;;;;;;;-0.64;nan;103941.38;5066893;28;20043;-63
2022/03/18 02:51:52;;;;;;;8.20;5.20;;;;;;;-0.65;nan;103931.91;5067514;28;20035;-64
2022/03/18 02:54:17;;;;;;;7.80;5.77;;;;;;;-0.66;nan;103940.25;5066943;28;20033;-63
2022/03/18 02:56:43;;;;;;;7.70;5.30;;;;;;;-0.69;nan;103932.22;5067090;28;20509;-64
2022/03/18 02:59:08;;;;;;;9.60;5.90;;;;;;;-0.71;nan;103937.13;5067283;28;20044;-62
2022/03/18 03:01:34;;;;;;;8.70;5.67;;;;;;;-0.75;nan;103938.38;5067289;28;20020;-64
2022/03/18 03:03:59;;;;;;;7.47;5.60;;;;;;;-0.77;nan;103939.78;5066998;28;20456;-63
2022/03/18 03:09:09;;;;;;;8.93;5.40;;;;;;;-0.80;nan;103954.69;5066973;28;20059;-64
2022/03/18 03:11:35;;;;;;;7.30;5.50;;;;;;;-0.78;nan;103958.34;5067406;28;20032;-62
2022/03/18 03:14:01;;;;;;;9.00;5.03;;;;;;;-0.76;nan;103956.94;5067473;28;20062;-65
2022/03/18 03:16:26;;;;;;;9.37;5.17;;;;;;;-0.78;nan;103958.34;5067442;28;20242;-64
2022/03/18 03:18:52;;;;;;;8.63;5.60;;;;;;;-0.83;nan;103963.56;5067461;28;20476;-65
2022/03/18 03:21:18;;;;;;;9.93;6.30;;;;;;;-0.90;nan;103957.66;5066581;28;20028;-63
2022/03/18 03:23:44;;;;;;;9.17;5.80;;;;;;;-0.99;nan;103962.50;5069677;28;20024;-64
2022/03/18 03:26:10;;;;;;;10.07;6.10;;;;;;;-1.01;nan;103973.22;5071204;28;20111;-61
2022/03/18 03:28:35;;;;;;;7.03;5.57;;;;;;;-1.03;nan;103962.84;5070881;28;20472;-60
2022/03/18 03:31:01;;;;;;;6.80;5.20;;;;;;;-1.01;nan;103963.91;5071415;28;20028;-64
2022/03/18 03:33:27;;;;;;;8.00;5.13;;;;;;;-0.99;nan;103972.69;5069853;28;20488;-64
2022/03/18 03:35:53;;;;;;;7.57;5.77;;;;;;;-0.98;nan;103979.63;5070717;28;20491;-64
2022/03/18 03:38:19;;;;;;;9.03;5.53;;;;;;;-0.98;nan;103977.06;5070778;28;20028;-64
2022/03/18 03:40:44;;;;;;;8.73;5.93;;;;;;;-0.99;nan;103981.97;5070722;28;20041;-64
2022/03/18 03:43:10;;;;;;;6.90;5.40;;;;;;;-0.99;nan;103972.69;5068981;28;20507;-64
2022/03/18 03:45:36;;;;;;;6.70;5.40;;;;;;;-1.04;nan;103973.72;5069920;28;20111;-65
2022/03/18 03:48:03;;;;;;;10.53;6.20;;;;;;;-1.06;nan;103980.22;5070437;28;20537;-64
2022/03/18 03:50:28;;;;;;;9.17;5.77;;;;;;;-1.09;nan;103982.38;5070304;28;20172;-61
2022/03/18 03:52:53;;;;;;;9.67;5.57;;;;;;;-1.12;nan;103989.63;5070368;28;20106;-64
2022/03/18 03:55:19;;;;;;;8.40;5.90;;;;;;;-1.11;nan;103992.38;5070225;28;20029;-64
2022/03/18 03:57:44;;;;;;;9.17;5.80;;;;;;;-1.10;nan;103991.66;5069445;28;20024;-60
2022/03/18 04:00:10;;;;;;;7.23;5.47;;;;;;;-1.07;nan;103990.22;5070049;28;20518;-62
2022/03/18 04:02:37;;;;;;;7.20;4.83;;;;;;;-1.07;nan;103991.16;5069929;28;20028;-63
2022/03/18 04:05:07;;;;;;;8.60;5.27;;;;;;;-1.09;nan;103992.56;5069733;28;20029;-64
2022/03/18 04:07:33;;;;;;;8.47;5.57;;;;;;;-1.10;nan;103994.19;5069920;28;20437;-60
2022/03/18 04:09:58;;;;;;;10.73;5.53;;;;;;;-1.06;nan;104008.25;5069880;28;20275;-62
2022/03/18 04:12:23;;;;;;;11.73;6.20;;;;;;;-1.05;nan;104022.81;5070041;28;20380;-64
2022/03/18 04:14:51;;;;;;;11.67;6.10;;;;;;;-1.08;nan;104017.34;5069600;28;20246;-65
2022/03/18 04:17:17;;;;;;;11.20;5.97;;;;;;;-1.13;nan;104023.41;5069627;28;20021;-62
2022/03/18 04:19:42;;;;;;;7.93;6.00;;;;;;;-1.17;nan;104019.56;5069997;28;20047;-64
2022/03/18 04:22:07;;;;;;;7.63;5.87;;;;;;;-1.19;nan;104023.56;5069912;28;20028;-60
2022/03/18 04:24:33;;;;;;;7.80;6.43;;;;;;;-1.20;nan;104029.34;5069355;28;20060;-64
2022/03/18 04:26:58;;;;;;;9.57;6.27;;;;;;;-1.24;nan;104032.22;5069566;28;20024;-65
2022/03/18 04:29:24;;;;;;;10.63;6.77;;;;;;;-1.27;nan;104031.78;5069639;28;20070;-62
2022/03/18 04:31:49;;;;;;;10.87;6.77;;;;;;;-1.29;nan;104041.78;5069210;28;20028;-62
2022/03/18 04:34:15;;;;;;;7.53;6.50;;;;;;;-1.29;nan;104044.31;5068104;28;20035;-64
2022/03/18 04:36:40;;;;;;;15.10;7.53;;;;;;;-1.33;nan;104035.38;5069616;28;20028;-65
2022/03/18 04:39:05;;;;;;;10.57;6.83;;;;;;;-1.31;nan;104043.19;5069189;28;20019;-64
2022/03/18 04:41:31;;;;;;;13.77;7.20;;;;;;;-1.31;nan;104055.94;5069231;28;20119;-67
2022/03/18 04:43:56;;;;;;;12.57;7.70;;;;;;;-1.34;nan;104050.44;5069606;28;20021;-64
2022/03/18 04:46:21;;;;;;;9.93;7.63;;;;;;;-1.36;nan;104044.22;5051159;28;20052;-64
2022/03/18 04:48:47;;;;;;;10.97;7.10;;;;;;;-1.36;nan;104044.22;5049198;28;20032;-62
2022/03/18 04:51:12;;;;;;;10.33;7.50;;;;;;;-1.34;nan;104042.81;5048957;28;20060;-63
2022/03/18 04:53:40;;;;;;;12.80;7.60;;;;;;;-1.34;nan;104043.72;5049127;28;20409;-65
2022/03/18 04:56:05;;;;;;;12.77;7.37;;;;;;;-1.35;nan;104048.63;5048731;28;20025;-62
2022/03/18 04:58:50;;;;;;;11.77;7.43;;;;;;;-1.36;nan;104051.84;5048454;28;20056;-63
2022/03/18 05:01:16;;;;;;;9.20;7.57;;;;;;;-1.35;nan;104062.22;5049184;28;20373;-64
2022/03/18 05:03:41;;;;;;;14.53;7.37;;;;;;;-1.36;nan;104055.34;5048749;28;20028;-64
2022/03/18 05:06:06;;;;;;;9.37;7.50;;;;;;;-1.34;nan;104060.63;5049285;28;20029;-62
2022/03/18 05:08:31;;;;;;;11.20;7.20;;;;;;;-1.33;nan;104062.44;5048442;28;20035;-61
2022/03/18 05:10:57;;;;;;;9.17;7.37;;;;;;;-1.32;nan;104074.47;5049201;28;20445;-64
2022/03/18 05:13:22;;;;;;;10.57;7.47;;;;;;;-1.34;nan;104066.63;5048885;28;20056;-63
2022/03/18 05:15:47;;;;;;;11.43;7.37;;;;;;;-1.34;nan;104075.88;5048211;28;20033;-63
2022/03/18 05:18:12;;;;;;;10.30;6.83;;;;;;;-1.35;nan;104082.59;5049002;28;20025;-64
2022/03/18 05:20:38;;;;;;;14.17;7.97;;;;;;;-1.37;nan;104078.94;5048875;28;20029;-63
2022/03/18 05:23:03;;;;;;;10.43;7.50;;;;;;;-1.39;nan;104088.00;5048829;28;20480;-62
2022/03/18 05:25:28;;;;;;;10.93;7.17;;;;;;;-1.40;nan;104085.28;5048802;28;20035;-64
2022/03/18 05:27:53;;;;;;;9.93;7.43;;;;;;;-1.42;nan;104094.31;5047987;28;20032;-63
2022/03/18 05:30:19;;;;;;;8.30;7.43;;;;;;;-1.45;nan;104095.75;5048214;28;20500;-63
2022/03/18 05:32:44;;;;;;;10.80;7.63;;;;;;;-1.46;nan;104093.88;5048593;28;20469;-64
2022/03/18 05:35:10;;;;;;;13.97;7.97;;;;;;;-1.50;nan;104094.22;5048299;28;20116;-60
2022/03/18 05:37:36;;;;;;;10.37;7.43;;;;;;;-1.50;nan;104096.75;5047314;28;20021;-64
2022/03/18 05:40:02;;;;;;;10.50;7.30;;;;;;;-1.49;nan;104098.56;5045570;28;20040;-61
2022/03/18 05:42:27;;;;;;;11.33;7.57;;;;;;;-1.48;nan;104104.59;5046531;28;20027;-63
2022/03/18 05:44:52;;;;;;;12.57;7.73;;;;;;;-1.52;nan;104100.72;5045671;28;20377;-63
2022/03/18 05:47:17;;;;;;;13.40;7.30;;;;;;;-1.55;nan;104095.22;5047066;28;20060;-63
2022/03/18 05:49:44;;;;;;;11.23;7.87;;;;;;;-1.56;nan;104095.91;5047884;28;20025;-64
2022/03/18 05:52:10;;;;;;;11.10;7.40;;;;;;;-1.57;nan;104091.56;5048180;28;20036;-60
2022/03/18 05:54:35;;;;;;;13.00;7.47;;;;;;;-1.57;nan;104094.09;5048243;28;20439;-62
2022/03/18 05:57:00;;;;;;;10.07;7.93;;;;;;;-1.58;nan;104089.69;5047984;28;20040;-61
2022/03/18 05:59:32;;;;;;;10.93;7.77;;;;;;;-1.65;nan;104089.59;5047883;28;20053;-62
2022/03/18 06:02:00;;;;;;;10.03;8.13;;;;;;;-1.69;nan;104094.28;5047524;28;20033;-64
2022/03/18 06:04:26;;;;;;;15.23;8.23;;;;;;;-1.66;nan;104103.03;5047125;28;20044;-62
2022/03/18 06:06:52;;;;;;;12.27;8.57;;;;;;;-1.63;nan;104103.44;5047762;28;20509;-60
2022/03/18 06:12:04;;;;;;;11.67;8.07;;;;;;;-1.54;nan;104117.41;5047773;28;20035;-63
2022/03/18 06:14:31;;;;;;;12.03;8.33;;;;;;;-1.49;nan;104118.00;5047466;28;20055;-63
2022/03/18 06:16:59;;;;;;;16.67;8.93;;;;;;;-1.45;nan;104120.25;5048016;28;20128;-62
2022/03/18 06:19:26;;;;;;;11.40;8.00;;;;;;;-1.42;nan;104122.31;5047785;28;20052;-63
2022/03/18 06:21:52;;;;;;;10.23;7.33;;;;;;;-1.38;nan;104132.16;5047619;28;20459;-61
2022/03/18 06:24:18;;;;;;;9.53;7.53;;;;;;;-1.35;nan;104140.25;5047663;28;20512;-63
2022/03/18 06:26:43;;;;;;;15.00;8.20;;;;;;;-1.34;nan;104144.59;5047107;28;20107;-60
2022/03/18 06:29:09;;;;;;;10.87;7.67;;;;;;;-1.33;nan;104143.88;5047900;28;20112;-62
2022/03/18 06:31:35;;;;;;;14.17;8.23;;;;;;;-1.30;nan;104151.03;5047330;28;20503;-62
2022/03/18 06:34:01;;;;;;;11.53;8.27;;;;;;;-1.24;nan;104151.84;5047270;28;20039;-63
2022/03/18 06:36:27;;;;;;;9.93;7.57;;;;;;;-1.17;nan;104149.38;5047015;28;20540;-62
2022/03/18 06:38:52;;;;;;;12.50;7.73;;;;;;;-1.12;nan;104147.47;5047336;28;20025;-62
2022/03/18 06:41:19;;;;;;;11.13;7.87;;;;;;;-1.06;nan;104145.72;5047765;28;20031;-61
2022/03/18 06:43:47;;;;;;;14.07;8.57;;;;;;;-1.00;nan;104149.09;5047233;28;20033;-64
2022/03/18 06:46:14;;;;;;;12.83;8.30;;;;;;;-0.79;nan;104150.09;5055899;28;20036;-62
2022/03/18 06:48:40;;;;;;;11.20;8.30;;;;;;;-0.60;nan;104157.63;5051841;28;20110;-60
2022/03/18 06:51:06;;;;;;;12.03;8.50;;;;;;;-0.49;nan;104159.94;5048000;28;20041;-64
2022/03/18 06:53:31;;;;;;;15.70;9.40;;;;;;;-0.33;nan;104164.50;5047942;28;20037;-64
2022/03/18 06:55:56;;;;;;;12.73;8.27;;;;;;;-0.19;nan;104168.84;5046582;28;20083;-62
2022/03/18 06:58:21;;;;;;;13.83;8.60;;;;;;;-0.05;nan;104173.16;5049281;28;20508;-64
2022/03/18 07:00:47;;;;;;;13.07;8.20;;;;;;;0.15;nan;104172.25;5051123;28;20037;-63
2022/03/18 07:03:13;;;;;;;13.77;8.93;;;;;;;0.53;nan;104176.97;5050212;28;20029;-64
2022/03/18 07:05:38;;;;;;;12.77;8.13;;;;;;;1.00;nan;104173.47;5051391;28;20453;-64
2022/03/18 07:08:04;;;;;;;13.87;9.67;;;;;;;1.36;nan;104170.19;5050944;28;20044;-63
2022/03/18 07:10:29;;;;;;;15.70;8.97;;;;;;;1.58;nan;104175.38;5051920;28;20186;-64
2022/03/18 07:12:55;;;;;;;13.77;9.17;;;;;;;1.72;nan;104177.06;5050989;28;20037;-63
2022/03/18 07:15:20;;;;;;;14.63;9.17;;;;;;;1.81;nan;104172.16;5050462;28;20024;-60
2022/03/18 07:18:01;;;;;;;15.00;9.90;;;;;;;1.96;nan;104169.63;5050906;28;20056;-61
2022/03/18 07:20:33;;;;;;;;;;;;;;;2.22;nan;104171.84;5061851;28;20280;-64
2022/03/18 07:23:08;;;;;;;13.73;9.47;;;;;;;2.43;nan;104178.59;5049649;28;20426;-64
2022/03/18 07:25:36;;;;;;;17.00;10.40;;;;;;;2.68;nan;104180.63;5050122;28;20035;-64
2022/03/18 07:28:02;;;;;;;12.90;9.70;;;;;;;2.93;nan;104179.28;5050283;28;20114;-60
2022/03/18 07:30:28;;;;;;;12.50;9.40;;;;;;;3.27;nan;104182.31;5050080;28;20075;-63
2022/03/18 07:32:53;;;;;;;12.77;8.67;;;;;;;3.62;nan;104181.97;5050051;28;20025;-62
2022/03/18 07:35:19;;;;;;;10.17;8.03;;;;;;;4.06;nan;104176.59;5056332;28;20451;-62
2022/03/18 07:37:44;;;;;;;13.43;7.70;;;;;;;4.64;nan;104190.63;5055445;28;20468;-64
2022/03/18 07:40:11;;;;;;;14.43;7.83;;;;;;;5.15;nan;104192.66;5052160;28;20024;-64
2022/03/18 07:42:44;;;;;;;9.93;7.00;;;;;;;5.96;nan;104190.84;5051627;28;20029;-64
2022/03/18 07:45:11;;;;;;;12.87;7.33;;;;;;;6.72;nan;104202.91;5049715;28;20362;-63
2022/03/18 07:47:36;;;;;;;13.03;7.40;;;;;;;7.88;nan;104206.44;5050185;28;20025;-64
2022/03/18 07:50:01;;;;;;;14.15;7.35;;;;;;;8.85;nan;104214.66;5050718;28;20021;-64
2022/03/18 07:52:27;;;;;;;14.88;7.07;;;;;;;9.60;nan;104213.63;5064291;28;20102;-63
2022/03/18 07:54:52;;;;;;;11.57;7.35;;;;;;;9.99;nan;104217.03;5050439;28;20047;-64
2022/03/18 07:57:18;;;;;;;12.98;6.97;;;;;;;10.66;nan;104229.72;5050813;28;20005;-63
2022/03/18 07:59:43;;;;;;;8.10;6.00;;;;;;;10.33;nan;104225.19;5054333;28;20041;-62
2022/03/18 08:02:08;;;;;;;12.45;7.18;;;;;;;9.93;nan;104229.47;5049568;28;20048;-64
2022/03/18 08:04:34;;;;;;;16.95;7.53;;;;;;;10.59;nan;104223.09;5049404;28;20021;-62
2022/03/18 08:07:02;;;;;;;9.57;5.57;;;;;;;10.80;nan;104225.69;5048306;28;20632;-61
2022/03/18 08:09:28;;;;;;;9.63;6.38;;;;;;;11.43;nan;104223.97;5047369;28;20111;-64
2022/03/18 08:11:53;;;;;;;15.60;5.80;;;;;;;11.66;nan;104227.53;5048787;28;20103;-63
2022/03/18 08:14:19;;;;;;;10.77;5.28;;;;;;;11.33;nan;104231.78;5048953;28;20450;-63
2022/03/18 08:16:44;;;;;;;10.77;5.72;;;;;;;12.24;nan;104229.56;5054013;28;20044;-63
2022/03/18 08:19:09;;;;;;;10.05;6.00;;;;;;;11.94;nan;104229.81;5066549;28;20031;-63
2022/03/18 08:21:35;;;;;;;16.58;5.53;;;;;;;12.31;nan;104236.13;5049251;28;20534;-63
2022/03/18 08:24:00;;;;;;;12.30;5.32;;;;;;;12.73;nan;104237.72;5054112;28;20029;-61
2022/03/18 08:26:27;;;;;;;8.85;5.15;;;;;;;12.44;nan;104246.75;5050381;28;20127;-60
2022/03/18 08:28:52;;;;;;;10.73;5.50;;;;;;;12.92;nan;104244.31;5052388;28;20017;-64
2022/03/18 08:31:17;;;;;;;8.25;4.15;;;;;;;13.10;nan;104233.47;5062401;28;20033;-64
2022/03/18 08:33:43;;;;;;;12.85;5.15;;;;;;;12.67;nan;104242.41;5059562;28;20032;-62
2022/03/18 08:36:08;;;;;;;9.57;4.97;;;;;;;12.42;nan;104245.72;5054833;28;20048;-62
2022/03/18 08:38:33;;;;;;;9.82;4.55;;;;;;;12.23;nan;104254.63;5065732;28;20061;-64
2022/03/18 08:40:58;;;;;;;7.97;4.40;;;;;;;11.57;nan;104256.28;5053529;28;20388;-63
2022/03/18 08:43:24;;;;;;;11.50;4.60;;;;;;;11.36;nan;104260.59;5061434;28;20044;-64
2022/03/18 08:45:50;;;;;;;8.77;4.45;;;;;;;11.88;nan;104260.47;5060058;28;20450;-63
2022/03/18 08:48:16;;;;;;;10.00;4.55;;;;;;;12.16;nan;104257.53;5054389;28;20377;-63
2022/03/18 08:50:41;;;;;;;8.23;4.47;;;;;;;12.54;nan;104265.69;5060172;28;20035;-64
2022/03/18 08:53:09;;;;;;;9.38;4.63;;;;;;;12.88;nan;104273.47;5054055;28;20013;-64
2022/03/18 08:55:35;;;;;;;11.75;4.57;;;;;;;13.17;nan;104274.81;5059880;28;20102;-64
2022/03/18 08:58:01;;;;;;;10.80;5.07;;;;;;;13.28;nan;104280.84;5052698;28;20028;-61
2022/03/18 09:00:26;;;;;;;8.80;5.20;;;;;;;13.14;nan;104285.00;5064989;28;20056;-62
2022/03/18 09:02:52;;;;;;;9.68;4.60;;;;;;;13.10;nan;104290.75;5051608;28;20036;-63
2022/03/18 09:05:18;;;;;;;9.95;4.80;;;;;;;13.54;nan;104281.03;5061488;28;20480;-63
2022/03/18 09:07:43;;;;;;;7.63;4.10;;;;;;;13.49;nan;104291.06;5059244;28;20067;-63
2022/03/18 09:10:10;;;;;;;8.35;4.18;;;;;;;13.37;nan;104296.25;5064247;28;20392;-62
2022/03/18 09:12:35;;;;;;;10.02;4.50;;;;;;;13.23;nan;104291.69;5050697;28;20029;-62
2022/03/18 09:15:03;;;;;;;10.68;4.57;;;;;;;13.14;nan;104292.81;5055518;28;20377;-61
2022/03/18 09:17:28;;;;;;;11.32;4.43;;;;;;;13.01;nan;104297.84;5061253;28;20093;-62
2022/03/18 09:19:54;;;;;;;8.90;4.32;;;;;;;13.06;nan;104296.53;5050537;28;20147;-62
2022/03/18 09:22:19;;;;;;;10.70;4.32;;;;;;;13.33;nan;104291.59;5050969;28;20086;-59
2022/03/18 09:24:46;;;;;;;7.88;3.97;;;;;;;12.95;nan;104299.19;5055775;28;20086;-62
2022/03/18 09:27:12;;;;;;;7.30;3.88;;;;;;;12.93;nan;104303.38;5051723;28;20552;-64
2022/03/18 09:29:39;;;;;;;6.90;3.50;;;;;;;12.92;nan;104306.78;5048988;28;20033;-64
2022/03/18 09:32:05;;;;;;;7.00;3.33;;;;;;;12.97;nan;104309.72;5048990;28;20056;-62
2022/03/18 09:34:30;;;;;;;8.60;3.50;;;;;;;12.90;nan;104312.69;5048583;28;20116;-61
2022/03/18 09:36:58;;;;;;;5.47;2.85;;;;;;;13.03;nan;104314.50;5048636;28;20108;-64
2022/03/18 09:39:29;;;;;;;5.07;2.70;;;;;;;13.00;nan;104314.28;5048145;28;20087;-63
2022/03/18 09:41:55;;;;;;;8.10;3.15;;;;;;;12.84;nan;104316.59;5047933;28;20035;-63
2022/03/18 09:44:21;;;;;;;6.32;3.83;;;;;;;12.78;nan;104315.19;5047861;28;20467;-64
2022/03/18 09:46:50;;;;;;;6.78;3.65;;;;;;;12.77;nan;104314.28;5048412;28;20025;-65
2022/03/18 09:49:18;;;;;;;7.90;3.30;;;;;;;12.77;nan;104313.41;5047746;28;20445;-63
2022/03/18 09:51:45;;;;;;;8.30;4.15;;;;;;;12.69;nan;104313.72;5048209;28;20029;-61
2022/03/18 09:54:11;;;;;;;6.68;3.28;;;;;;;12.83;nan;104313.88;5047128;28;20024;-64
2022/03/18 09:56:41;;;;;;;8.50;3.35;;;;;;;12.79;nan;104317.91;5048188;28;20028;-64
2022/03/18 09:59:07;;;;;;;7.28;3.40;;;;;;;12.79;nan;104317.03;5047469;28;20041;-62
2022/03/18 10:01:33;;;;;;;6.30;2.92;;;;;;;12.67;nan;104315.28;5047802;28;20115;-64
2022/03/18 10:04:10;;;;;;;8.13;3.10;;;;;;;12.58;nan;104324.94;5048054;28;20081;-64
2022/03/18 10:06:37;;;;;;;5.15;2.55;;;;;;;12.64;nan;104330.66;5047440;28;20051;-64
2022/03/18 10:09:04;;;;;;;5.80;2.70;;;;;;;12.23;nan;104327.44;5047133;28;20108;-64
2022/03/18 10:11:33;;;;;;;3.80;2.22;;;;;;;12.01;nan;104336.09;5047935;28;20029;-64
2022/03/18 10:14:00;;;;;;;3.63;2.05;;;;;;;12.19;nan;104335.78;5029357;28;20115;-64
2022/03/18 10:16:33;;;;;;;5.32;2.22;;;;;;;12.32;nan;104339.38;5047275;28;20480;-64
2022/03/18 10:18:59;;;;;;;4.03;2.22;;;;;;;12.23;nan;104335.25;5047507;28;20055;-62
2022/03/18 10:21:25;;;;;;;3.72;1.80;;;;;;;12.33;nan;104336.00;5047019;28;20024;-62
2022/03/18 10:24:03;;;;;;;5.63;1.98;;;;;;;12.42;nan;104336.75;5047499;28;20037;-62
2022/03/18 10:26:28;;;;;;;5.72;2.17;;;;;;;12.52;nan;104334.88;5047561;28;20021;-63
2022/03/18 10:28:58;;;;;;;7.43;2.30;;;;;;;12.64;nan;104330.66;5047084;28;20052;-63
2022/03/18 10:31:25;;;;;;;4.22;2.33;;;;;;;12.72;nan;104329.56;5047524;28;20574;-64
2022/03/18 10:39:36;;;;;;;6.88;2.35;;;;;;;12.77;nan;104331.63;5045079;28;20048;-63
2022/03/18 10:42:04;;;;;;;4.82;2.00;;;;;;;12.93;nan;104332.00;5046406;28;20021;-63
2022/03/18 10:44:43;;;;;;;3.47;2.15;;;;;;;12.73;nan;104334.00;5043299;28;20036;-63
2022/03/18 10:47:09;;;;;;;5.88;2.00;;;;;;;12.73;nan;104331.38;5048807;28;20060;-63
2022/03/18 10:49:35;;;;;;;6.65;1.88;;;;;;;12.85;nan;104340.94;5051757;28;20063;-60
2022/03/18 10:52:14;;;;;;;6.25;2.40;;;;;;;12.94;nan;104336.44;5053456;28;20143;-61
2022/03/18 10:54:40;;;;;;;6.30;2.25;;;;;;;13.06;nan;104333.00;5054144;28;20317;-63
2022/03/18 10:57:05;;;;;;;5.13;1.95;;;;;;;13.15;nan;104338.88;5051034;28;20036;-63
2022/03/18 10:59:31;;;;;;;5.70;2.00;;;;;;;13.16;nan;104332.91;5059541;28;20048;-62
2022/03/18 11:01:58;;;;;;;5.90;2.45;;;;;;;13.19;nan;104338.34;5046090;28;20090;-60
2022/03/18 11:04:24;;;;;;;4.63;1.88;;;;;;;13.18;nan;104336.53;5046080;28;20025;-62
2022/03/18 11:12:26;;;;;;;5.40;2.03;;;;;;;13.19;nan;104330.53;5046859;28;20063;-61
2022/03/18 11:14:54;;;;;;;6.85;2.00;;;;;;;13.24;nan;104324.78;5045638;28;20033;-61
2022/03/18 11:17:21;;;;;;;4.40;2.78;;;;;;;13.08;nan;104328.78;5046789;28;20016;-63
2022/03/18 11:19:47;;;;;;;5.68;2.00;;;;;;;13.15;nan;104320.66;5046257;28;20028;-62
2022/03/18 11:22:15;;;;;;;5.38;2.13;;;;;;;13.29;nan;104320.84;5046714;28;20021;-63
2022/03/18 11:24:41;;;;;;;4.95;2.45;;;;;;;13.38;nan;104313.72;5046816;28;20104;-63
2022/03/18 11:27:07;;;;;;;5.78;2.90;;;;;;;13.56;nan;104305.50;5050490;28;20163;-60
2022/03/18 11:29:34;;;;;;;8.70;3.22;;;;;;;13.71;nan;104320.47;5045685;28;20112;-63
2022/03/18 11:32:12;;;;;;;7.15;2.65;;;;;;;13.83;nan;104329.22;5048995;28;20021;-63
2022/03/18 11:34:50;;;;;;;4.18;2.40;;;;;;;13.85;nan;104318.91;5029040;28;20040;-62
2022/03/18 11:37:16;;;;;;;4.47;2.33;;;;;;;13.92;nan;104313.34;5055922;28;20087;-63
2022/03/18 11:39:42;;;;;;;6.88;2.75;;;;;;;13.91;nan;104317.63;5047356;28;20033;-63
2022/03/18 11:42:09;;;;;;;6.43;2.53;;;;;;;13.92;nan;104314.22;5045889;28;20139;-62
2022/03/18 11:44:40;;;;;;;7.88;2.78;;;;;;;14.04;nan;104310.72;5046927;28;20557;-62
2022/03/18 11:47:20;;;;;;;;;;;;;;;14.10;nan;104313.78;5048377;28;20164;-60
2022/03/18 11:49:47;;;;;;;8.02;2.80;;;;;;;14.23;nan;104314.69;5051011;28;19962;-61
2022/03/18 11:52:13;;;;;;;6.72;2.63;;;;;;;14.34;nan;104304.97;5051777;28;20064;-62
2022/03/18 11:54:55;;;;;;;4.15;2.58;;;;;;;14.50;nan;104304.38;5048854;28;20465;-62
2022/03/18 11:57:33;;;;;;;4.65;2.88;;;;;;;14.60;nan;104317.31;5044134;28;20040;-63
2022/03/18 12:00:00;;;;;;;4.90;2.90;;;;;;;14.68;nan;104309.09;5041257;28;20194;-62